createdAt,value
2023-03-20T06:37:46.498Z,9.60
2023-03-20T06:40:14.156Z,9.60
2023-03-20T06:42:41.668Z,9.80
2023-03-20T06:45:09.587Z,10.10
2023-03-20T06:47:37.184Z,10.10
2023-03-20T06:50:04.724Z,10.20
2023-03-20T06:59:55.931Z,10.30
2023-03-20T07:02:23.187Z,10.00
2023-03-20T07:04:56.408Z,9.80
2023-03-20T07:07:30.800Z,9.90
2023-03-20T07:10:08.951Z,9.20
2023-03-20T07:12:41.281Z,9.70
2023-03-20T07:15:15.857Z,9.20
2023-03-20T07:17:53.674Z,9.80
2023-03-20T07:20:30.310Z,9.80
2023-03-20T07:23:05.094Z,10.30
2023-03-20T07:25:43.239Z,10.30
2023-03-20T07:28:19.487Z,10.20
2023-03-20T07:30:52.260Z,10.80
2023-03-20T07:33:24.463Z,10.80
2023-03-20T07:36:10.808Z,11.10
2023-03-20T07:38:43.329Z,11.20
2023-03-20T07:41:16.669Z,11.30
2023-03-20T07:44:02.931Z,11.20
2023-03-20T07:46:47.909Z,11.50
2023-03-20T07:49:27.206Z,11.60
2023-03-20T07:51:58.950Z,11.60
2023-03-20T07:54:30.762Z,11.70
2023-03-20T07:57:00.714Z,11.40
2023-03-20T07:59:28.273Z,11.40
2023-03-20T08:01:55.946Z,11.40
2023-03-20T08:04:23.554Z,11.80
2023-03-20T08:06:51.322Z,12.20
2023-03-20T08:09:19.361Z,11.90
2023-03-20T08:11:48.992Z,12.00
2023-03-20T08:14:17.010Z,12.20
2023-03-20T08:16:44.528Z,12.30
2023-03-20T08:19:11.796Z,12.60
2023-03-20T08:21:39.114Z,13.80
2023-03-20T08:24:06.795Z,15.90
2023-03-20T08:26:34.092Z,16.70
2023-03-20T08:29:01.398Z,17.10
2023-03-20T08:31:28.657Z,18.60
2023-03-20T08:33:58.519Z,20.10
2023-03-20T08:36:25.837Z,18.20
2023-03-20T08:38:53.181Z,17.20
2023-03-20T08:41:20.663Z,17.20
2023-03-20T08:43:48.104Z,16.20
2023-03-20T08:46:16.168Z,15.50
2023-03-20T08:48:44.011Z,14.90
2023-03-20T08:51:12.354Z,15.50
2023-03-20T08:53:40.830Z,16.30
2023-03-20T08:56:10.004Z,16.10
2023-03-20T08:58:40.863Z,14.20
2023-03-20T09:01:14.106Z,12.60
2023-03-20T09:03:42.979Z,14.10
2023-03-20T09:11:22.207Z,14.30
2023-03-20T09:23:50.911Z,15.70
2023-03-20T09:26:22.653Z,15.70
2023-03-20T09:36:17.005Z,14.10
2023-03-20T09:38:45.655Z,13.70
2023-03-20T09:41:49.172Z,13.90
2023-03-20T09:45:05.529Z,13.80
2023-03-20T09:48:16.648Z,14.20
2023-03-20T09:50:55.445Z,14.20
2023-03-20T09:55:54.373Z,13.80
2023-03-20T09:58:28.320Z,13.20
2023-03-20T10:00:59.981Z,13.10
2023-03-20T10:03:33.190Z,12.80
2023-03-20T10:06:04.815Z,12.70
2023-03-20T10:08:38.109Z,12.70
2023-03-20T10:11:32.618Z,12.90
2023-03-20T10:14:24.595Z,12.80
2023-03-20T10:17:01.368Z,13.30
2023-03-20T10:19:36.842Z,13.80
2023-03-20T10:22:16.413Z,15.00
2023-03-20T10:25:07.388Z,16.50
2023-03-20T10:27:46.253Z,17.00
2023-03-20T10:30:52.647Z,17.20
2023-03-20T10:33:38.436Z,17.00
2023-03-20T10:36:20.299Z,17.10
2023-03-20T10:39:09.430Z,17.60
2023-03-20T10:41:55.192Z,17.50
2023-03-20T10:44:43.932Z,17.90
2023-03-20T10:47:17.610Z,17.80
2023-03-20T10:49:59.895Z,17.90
2023-03-20T10:52:36.464Z,17.00
2023-03-20T10:55:20.386Z,16.40
2023-03-20T10:58:12.321Z,15.90
2023-03-20T11:03:20.365Z,16.90
2023-03-20T11:06:08.599Z,17.50
2023-03-20T11:08:47.038Z,17.60
2023-03-20T11:13:45.114Z,17.00
2023-03-20T11:16:21.122Z,16.50
2023-03-20T11:18:51.416Z,16.20
2023-03-20T11:21:21.381Z,16.20
2023-03-20T11:23:50.954Z,16.10
2023-03-20T11:26:38.980Z,16.00
2023-03-20T11:29:37.305Z,16.70
2023-03-20T11:32:26.142Z,17.00
2023-03-20T11:34:57.530Z,16.10
2023-03-20T11:37:33.628Z,16.10
2023-03-20T11:40:25.319Z,14.70
2023-03-20T11:43:02.917Z,15.30
2023-03-20T11:45:40.252Z,15.00
2023-03-20T11:48:23.433Z,14.30
2023-03-20T11:51:03.756Z,14.60
2023-03-20T11:53:41.861Z,15.00
2023-03-20T11:56:15.299Z,15.00
2023-03-20T11:59:03.115Z,15.80
2023-03-20T12:01:44.835Z,16.00
2023-03-20T12:04:16.266Z,16.30
2023-03-20T12:06:58.339Z,16.30
2023-03-20T12:09:47.623Z,16.50
2023-03-20T12:12:17.808Z,16.20
2023-03-20T12:15:10.138Z,15.50
2023-03-20T12:17:59.699Z,16.00
2023-03-20T12:20:29.909Z,15.70
2023-03-20T12:23:11.248Z,14.80
2023-03-20T12:25:51.685Z,15.40
2023-03-20T12:28:36.233Z,15.40
2023-03-20T12:31:25.098Z,15.40
2023-03-20T12:33:52.376Z,15.90
2023-03-20T12:36:46.626Z,15.80
2023-03-20T12:39:21.032Z,15.80
2023-03-20T12:42:24.813Z,15.80
2023-03-20T12:44:55.806Z,15.30
2023-03-20T12:47:42.559Z,15.30
2023-03-20T12:50:41.882Z,15.30
2023-03-20T12:53:36.650Z,14.70
2023-03-20T12:56:04.861Z,14.40
2023-03-20T12:59:09.053Z,14.40
2023-03-20T13:01:48.238Z,15.00
2023-03-20T13:04:45.369Z,14.50
2023-03-20T13:07:31.166Z,14.30
2023-03-20T13:10:12.828Z,14.20
2023-03-20T13:13:09.775Z,14.50
2023-03-20T13:15:49.488Z,14.50
2023-03-20T13:18:20.537Z,14.10
2023-03-20T13:20:52.486Z,14.40
2023-03-20T13:23:29.722Z,14.60
2023-03-20T13:26:29.470Z,14.70
2023-03-20T13:29:18.941Z,14.50
2023-03-20T13:32:00.806Z,14.60
2023-03-20T13:34:32.010Z,14.50
2023-03-20T13:37:24.408Z,14.70
2023-03-20T13:40:13.812Z,15.00
2023-03-20T13:43:12.280Z,14.20
2023-03-20T13:45:43.959Z,14.50
2023-03-20T13:48:34.785Z,14.40
2023-03-20T13:51:21.238Z,14.50
2023-03-20T13:54:13.240Z,15.20
2023-03-20T13:56:56.265Z,14.50
2023-03-20T13:59:29.894Z,14.20
2023-03-20T14:02:38.994Z,14.20
2023-03-20T14:05:20.441Z,14.10
2023-03-20T14:07:49.053Z,14.20
2023-03-20T14:10:22.597Z,14.30
2023-03-20T14:13:06.596Z,14.30
2023-03-20T14:15:37.569Z,13.90
2023-03-20T14:18:06.949Z,14.10
2023-03-20T14:20:40.428Z,14.20
2023-03-20T14:23:18.413Z,14.20
2023-03-20T14:25:47.581Z,14.60
2023-03-20T14:31:10.928Z,14.20
2023-03-20T14:33:43.465Z,14.50
2023-03-20T14:36:12.551Z,14.10
2023-03-20T14:38:57.600Z,14.60
2023-03-20T14:41:28.011Z,14.50
2023-03-20T14:44:08.877Z,14.50
2023-03-20T14:46:58.020Z,14.20
2023-03-20T14:49:53.204Z,13.90
2023-03-20T14:52:35.854Z,14.10
2023-03-20T14:55:52.217Z,14.30
2023-03-20T14:58:43.878Z,14.10
2023-03-20T15:01:23.678Z,14.20
2023-03-20T15:04:06.788Z,14.30
2023-03-20T15:06:45.579Z,14.00
2023-03-20T15:09:13.570Z,13.90
2023-03-20T15:11:42.637Z,14.20
2023-03-20T15:14:11.081Z,14.30
2023-03-20T15:16:38.670Z,13.70
2023-03-20T15:19:17.453Z,14.10
2023-03-20T15:21:46.081Z,13.80
2023-03-20T15:24:31.355Z,13.70
2023-03-20T15:27:01.310Z,13.70
2023-03-20T15:29:29.928Z,13.70
2023-03-20T15:32:12.919Z,13.50
2023-03-20T15:34:42.726Z,13.30
2023-03-20T15:37:16.021Z,13.70
2023-03-20T15:39:46.241Z,13.50
2023-03-20T15:42:20.058Z,13.50
2023-03-20T15:44:49.480Z,13.10
2023-03-20T15:47:25.186Z,13.50
2023-03-20T15:49:57.983Z,13.30
2023-03-20T15:52:43.574Z,14.20
2023-03-20T15:55:19.888Z,13.50
2023-03-20T15:57:50.367Z,13.20
2023-03-20T16:00:25.316Z,13.40
2023-03-20T16:02:53.616Z,12.80
2023-03-20T16:05:23.445Z,12.80
2023-03-20T16:10:36.736Z,13.20
2023-03-20T16:13:06.886Z,12.90
2023-03-20T16:15:34.880Z,13.00
2023-03-20T16:18:04.725Z,12.90
2023-03-20T16:20:38.854Z,12.80
2023-03-20T16:23:08.467Z,12.70
2023-03-20T16:25:37.269Z,12.50
2023-03-20T16:28:08.277Z,12.70
2023-03-20T16:30:36.291Z,12.00
2023-03-20T16:33:14.228Z,11.90
2023-03-20T16:35:48.098Z,12.80
2023-03-20T16:38:27.338Z,12.20
2023-03-20T16:40:58.345Z,12.10
2023-03-20T16:43:31.738Z,12.10
2023-03-20T16:46:04.754Z,12.10
2023-03-20T16:48:33.398Z,12.10
2023-03-20T16:51:06.701Z,12.00
2023-03-20T16:53:42.216Z,12.30
2023-03-20T16:56:17.874Z,12.00
